Time;durP1;ratioP1;P1;durP2;ratioP2;P2;SDS_P1;SDS_P2;PMS_P1;PMS_P2;Temp;Humidity;BMP_temperature;BMP_pressure;BME280_temperature;BME280_humidity;BME280_pressure;Samples;Min_cycle;Max_cycle;Signal;HPM_P1;HPM_P2
2024/01/17 00:19:29;;;;;;;20.7;8.7;;;;;;;;;;;;;-79
2024/01/17 00:49:20;;;;;;;18.4;8.4;;;;;;;;;;;;;-78
2024/01/17 01:19:28;;;;;;;21.4;10;;;;;;;;;;;;;-80
2024/01/17 01:49:22;;;;;;;22.6;10.5;;;;;;;;;;;;;-77
2024/01/17 02:19:19;;;;;;;21.5;10.2;;;;;;;;;;;;;-79
2024/01/17 02:49:19;;;;;;;26.1;12;;;;;;;;;;;;;-78
2024/01/17 03:19:21;;;;;;;28.8;13.6;;;;;;;;;;;;;-77
2024/01/17 03:49:17;;;;;;;28;13.5;;;;;;;;;;;;;-78
2024/01/17 04:19:17;;;;;;;25.7;12.4;;;;;;;;;;;;;-78
2024/01/17 04:49:15;;;;;;;28.4;14.3;;;;;;;;;;;;;-78
2024/01/17 05:19:16;;;;;;;25.7;12.1;;;;;;;;;;;;;-79
2024/01/17 05:49:15;;;;;;;31.1;13.3;;;;;;;;;;;;;-79
2024/01/17 06:19:16;;;;;;;24.7;11.2;;;;;;;;;;;;;-80
2024/01/17 06:49:13;;;;;;;26.7;12;;;;;;;;;;;;;-78
2024/01/17 07:19:11;;;;;;;25.9;10.6;;;;;;;;;;;;;-80
2024/01/17 07:49:12;;;;;;;29.3;12.2;;;;;;;;;;;;;-79
2024/01/17 08:19:11;;;;;;;25.4;10.9;;;;;;;;;;;;;-78
2024/01/17 08:49:09;;;;;;;21.6;10.9;;;;;;;;;;;;;-77
2024/01/17 09:19:16;;;;;;;24.8;10.4;;;;;;;;;;;;;-84
2024/01/17 09:49:18;;;;;;;26.4;10.1;;;;;;;;;;;;;-85
2024/01/17 10:19:18;;;;;;;23.6;9.2;;;;;;;;;;;;;-83
2024/01/17 10:49:13;;;;;;;21.7;8.8;;;;;;;;;;;;;-83
2024/01/17 11:19:06;;;;;;;19.4;8.2;;;;;;;;;;;;;-84
2024/01/17 11:49:08;;;;;;;20;9;;;;;;;;;;;;;-84
2024/01/17 12:19:06;;;;;;;17.4;8.6;;;;;;;;;;;;;-84
2024/01/17 12:49:04;;;;;;;19.1;7.7;;;;;;;;;;;;;-84
2024/01/17 13:19:20;;;;;;;21.8;9;;;;;;;;;;;;;-84
2024/01/17 13:49:13;;;;;;;18.9;8.7;;;;;;;;;;;;;-84
2024/01/17 14:19:17;;;;;;;17.7;8.4;;;;;;;;;;;;;-84
2024/01/17 14:49:10;;;;;;;17;8.4;;;;;;;;;;;;;-85
2024/01/17 15:19:11;;;;;;;23.8;9.5;;;;;;;;;;;;;-85
2024/01/17 15:49:02;;;;;;;23.5;10.4;;;;;;;;;;;;;-83
2024/01/17 16:19:05;;;;;;;22.7;9.8;;;;;;;;;;;;;-84
2024/01/17 16:49:03;;;;;;;22.1;10.3;;;;;;;;;;;;;-85
2024/01/17 17:19:05;;;;;;;24.8;10.8;;;;;;;;;;;;;-84
2024/01/17 17:49:03;;;;;;;24.5;12;;;;;;;;;;;;;-83
2024/01/17 18:19:02;;;;;;;24.9;11.7;;;;;;;;;;;;;-85
2024/01/17 18:49:10;;;;;;;25.6;12.1;;;;;;;;;;;;;-83
2024/01/17 19:19:00;;;;;;;29.2;13.1;;;;;;;;;;;;;-83
2024/01/17 19:48:58;;;;;;;29;13.9;;;;;;;;;;;;;-82
2024/01/17 20:18:59;;;;;;;31.2;14.4;;;;;;;;;;;;;-84
2024/01/17 20:48:56;;;;;;;32.7;15;;;;;;;;;;;;;-84
2024/01/17 21:19:01;;;;;;;27.6;12.7;;;;;;;;;;;;;-84
2024/01/17 21:48:55;;;;;;;24.1;10.2;;;;;;;;;;;;;-84
2024/01/17 22:19:00;;;;;;;18.5;8;;;;;;;;;;;;;-84
2024/01/17 22:48:55;;;;;;;16.6;7.5;;;;;;;;;;;;;-85
2024/01/17 23:18:52;;;;;;;14.5;5.9;;;;;;;;;;;;;-84
2024/01/17 23:48:56;;;;;;;14;5.3;;;;;;;;;;;;;-83
